Troy Mills, IA (52344)

3:06 AM CDT on August 04, 2015 (GMT -0500)
KIACENTR2 | | Change Station
CLOSE
Current Station
Personal Weather Station
Location: Central City, IA
Elevation: 930 ft
Nearby Weather Stations

Elev 930 ft 42.20 °N, 91.65 °W | Updated 60 seconds ago

Clear
Clear
57.7 °F
Feels Like 57.7 °F
N
0.0
Wind Variable Wind from West
Gusts 0.0 mph

Today
High -- | Low -- °F
--% Chance of Precip.
Yesterday
High -- | Low -- °F
Precip. -- in
6:02 AM 8:22 PM
Waning Gibbous, 80% visible
Pressure 29.97 in
Visibility 7.0 miles
Clouds Clear
Dew Point 44 °F
Humidity 60%
Rainfall -999.00 in
Snow Depth Not available.
UV 0.0 out of 12
Pollen 6.20 out of 12
Air Quality Not available.
Flu Activity Not available.
METAR KVTI 040755Z AUTO 00000KT 7SM CLR 15/14 A2997 RMK AO2 T01490142

More Conditions Fewer Conditions

Pressure 29.97 in
Visibility 7.0 miles
Clouds Clear
Dew Point 44 °F
Humidity 60%
Rainfall -999.00 in
Snow Depth Not available.
UV 0.0 out of 12
Pollen 6.20 out of 12
Air Quality Not available.
Flu Activity Not available.
METAR KVTI 040755Z AUTO 00000KT 7SM CLR 15/14 A2997 RMK AO2 T01490142

More Conditions Fewer Conditions

10-Day Weather Forecast

×

Almanac

Astronomy

Aug. 04, 2015 Rise Set
Actual Time
Civil Twilight
Nautical Twilight
Astronomical Twilight
Moon
Length of Visible Light
Length of Day
Tomorrow will be .
, % of the Moon is Illuminated

Today's Extremes

State Highs State Lows

Community

WunderPhotos

Upload Photos

1,843,877 photos uploaded!

WunderBlogs® & News

Nearby

Air Quality

  Air Quality AQ Index Pollutant
Not available.

Snow Depth

Station Depth Elevation

Earthquake Activity

City Distance Mag. Time & Date
Minimum magnitude displayed is 2.5.

Coastal Water Temperatures

Place Temperature

Stations

Nearby Weather Stations

Station Location Temp. Windchill Dew Point Humidity Wind Precip. Elev Updated Type